Hauptseite
METAR-TAF:

METAR-TAF

Flughäfen :

Bohrplattform

Awg-1, Niederlande

Breite: 53-29-30N, Länge: 5-56-30E, Höhe: 33 m

Beobachtung

Neuester Wetterbericht von vor 25 Minuten, um 12:55 UTC
Wind 15 kt aus Süd/Südwest
Temperatur 4°C
Luftfeuchtigkeit 100%
Luftdruck 1020 hPa
Sichtweite: 1900 m
Durchbrochene Bewölkung in der Höhe von 300 ft
Geschlossene Wolkendecke in der Höhe von 400 ft
feuchter Dunst

METAR: EHMA 241255Z AUTO 21015KT 1900 BR BKN003 OVC004 04/04 Q1020

Zeit: 14:20 (13:20 UTC)


TAF: fehlend

Wetterbeobachtungen und Prognosen von mehr als 4000 Flughäfen (METAR und TAF Bericht).

Die verfügbaren Stationen werden durch gelbe und rote Markierungen auf der Karte dargestellt.

Führen Sie die Maus auf sie, um den Namen der Station zu sehen.

Darauf klicken, um die Beobachtung von Wetterbeobachtungen und Prognosen zu sehen.

Um die Karte zu ändern : klicken Sie auf den grünen Tasten mit einem schwarzen Kreuz Zum Vergrößern, auf den grünen Button mit einem Gedankenstrich zu verkleinern, oder auf die grünen Pfeile für benachbarte Karten.


METAR-TAF: